Time;durP1;ratioP1;P1;durP2;ratioP2;P2;SDS_P1;SDS_P2;PMS_P1;PMS_P2;Temp;Humidity;BMP_temperature;BMP_pressure;BME280_temperature;BME280_humidity;BME280_pressure;Samples;Min_cycle;Max_cycle;Signal;HPM_P1;HPM_P2
2022/05/01 00:00:32;;;;;;;7.25;2.85;;;9.50;99.90;;;;;;12399191;28;20058;-36
2022/05/01 00:06:50;;;;;;;7.85;3.10;;;9.40;99.90;;;;;;12397786;28;20905;-36
2022/05/01 00:13:02;;;;;;;6.55;3.25;;;9.40;99.90;;;;;;12391403;28;20057;-37
2022/05/01 00:19:12;;;;;;;6.57;3.28;;;9.40;99.90;;;;;;12395030;28;20054;-37
2022/05/01 00:25:43;;;;;;;5.35;3.50;;;9.30;99.90;;;;;;12396186;28;20057;-36
2022/05/01 00:31:53;;;;;;;5.90;2.85;;;9.30;99.90;;;;;;12402680;28;20137;-36
2022/05/01 00:38:06;;;;;;;5.88;3.28;;;9.30;99.90;;;;;;12396991;28;20058;-36
2022/05/01 00:44:25;;;;;;;6.18;3.55;;;9.10;99.90;;;;;;12387293;28;20050;-37
2022/05/01 00:50:30;;;;;;;6.53;3.45;;;9.20;99.90;;;;;;12389641;28;20050;-38
2022/05/01 00:56:38;;;;;;;6.50;3.42;;;9.20;99.90;;;;;;12386509;28;20483;-38
2022/05/01 01:02:40;;;;;;;7.82;3.83;;;9.20;99.90;;;;;;12389127;28;20063;-36
2022/05/01 01:08:46;;;;;;;5.15;3.60;;;9.30;99.90;;;;;;12395071;28;20096;-37
2022/05/01 01:14:58;;;;;;;9.55;3.58;;;9.00;99.90;;;;;;12392213;28;20161;-36
2022/05/01 01:21:10;;;;;;;7.60;4.45;;;8.80;99.90;;;;;;12396027;28;20388;-36
2022/05/01 01:27:21;;;;;;;8.67;5.00;;;8.70;99.90;;;;;;12394651;28;20092;-37
2022/05/01 01:33:31;;;;;;;9.35;4.90;;;8.80;99.90;;;;;;12393600;28;20430;-37
2022/05/01 01:39:44;;;;;;;7.82;4.22;;;8.80;99.90;;;;;;12391386;28;20055;-37
2022/05/01 01:45:56;;;;;;;6.72;5.25;;;8.80;99.90;;;;;;12386959;28;20112;-36
2022/05/01 01:52:11;;;;;;;8.50;5.03;;;8.70;99.90;;;;;;12393932;28;20058;-37
2022/05/01 01:58:23;;;;;;;7.63;4.65;;;8.80;99.90;;;;;;12390511;28;20441;-37
2022/05/01 02:04:30;;;;;;;7.95;5.20;;;8.80;99.90;;;;;;12381715;28;20054;-35
2022/05/01 02:10:40;;;;;;;8.63;5.30;;;8.70;99.90;;;;;;12392964;28;20054;-36
2022/05/01 02:16:57;;;;;;;8.48;5.45;;;8.80;99.90;;;;;;12392619;28;20065;-37
2022/05/01 02:23:09;;;;;;;8.82;5.20;;;8.70;99.90;;;;;;12392299;28;20050;-37
2022/05/01 02:29:16;;;;;;;8.25;5.10;;;8.70;99.90;;;;;;12390716;28;20598;-37
2022/05/01 02:35:27;;;;;;;9.15;5.43;;;8.70;99.90;;;;;;12387558;28;20124;-37
2022/05/01 02:41:39;;;;;;;10.48;5.38;;;8.60;99.90;;;;;;12392396;28;20426;-38
2022/05/01 02:47:48;;;;;;;11.85;6.72;;;8.50;99.90;;;;;;12389610;28;20123;-37
2022/05/01 02:53:55;;;;;;;10.38;6.18;;;8.60;99.90;;;;;;12384923;28;20521;-36
2022/05/01 03:00:01;;;;;;;9.77;5.90;;;8.70;99.90;;;;;;12389433;28;20403;-36
2022/05/01 03:06:13;;;;;;;13.15;6.63;;;8.70;99.90;;;;;;12389809;28;20050;-37
2022/05/01 03:12:21;;;;;;;10.20;6.43;;;8.60;99.90;;;;;;12391230;28;20444;-38
2022/05/01 03:25:00;;;;;;;11.40;6.82;;;8.60;99.90;;;;;;12386495;28;20634;-37
2022/05/01 03:31:10;;;;;;;10.43;7.13;;;8.70;99.90;;;;;;12389861;28;20391;-36
2022/05/01 03:37:20;;;;;;;9.82;7.03;;;8.60;99.90;;;;;;12389390;28;20450;-37
2022/05/01 03:43:32;;;;;;;13.80;7.50;;;8.70;99.90;;;;;;12389334;28;20051;-37
2022/05/01 03:49:40;;;;;;;11.75;7.65;;;8.60;99.90;;;;;;12389888;28;20499;-36
2022/05/01 03:55:54;;;;;;;10.32;6.47;;;8.60;99.90;;;;;;12384145;28;20050;-37
2022/05/01 04:02:07;;;;;;;11.77;7.22;;;8.70;99.90;;;;;;12397047;28;20074;-37
2022/05/01 04:08:18;;;;;;;13.45;7.78;;;8.70;99.90;;;;;;12399269;28;20058;-37
2022/05/01 04:14:30;;;;;;;12.27;7.95;;;8.60;99.90;;;;;;12391701;28;20056;-36
2022/05/01 04:20:45;;;;;;;11.85;7.70;;;8.50;99.90;;;;;;12397756;28;20050;-36
2022/05/01 04:26:57;;;;;;;11.57;7.55;;;8.50;99.90;;;;;;12396546;28;20078;-37
2022/05/01 04:33:13;;;;;;;14.48;8.07;;;8.50;99.90;;;;;;12397578;28;20556;-35
2022/05/01 04:39:23;;;;;;;11.18;7.00;;;8.50;99.90;;;;;;12397236;28;20414;-38
2022/05/01 04:45:32;;;;;;;11.50;6.75;;;8.50;99.90;;;;;;12389831;28;20564;-35
2022/05/01 04:51:42;;;;;;;11.90;7.13;;;8.50;99.90;;;;;;12395354;28;20058;-35
2022/05/01 04:57:51;;;;;;;14.77;7.70;;;8.50;99.90;;;;;;12395608;28;20137;-38
2022/05/01 05:03:57;;;;;;;9.65;6.80;;;8.50;99.90;;;;;;12392947;28;20070;-38
2022/05/01 05:10:03;;;;;;;12.02;7.53;;;8.50;99.90;;;;;;12390362;28;20054;-36
2022/05/01 05:16:12;;;;;;;10.82;6.95;;;8.70;99.90;;;;;;12389866;28;20058;-36
2022/05/01 05:22:15;;;;;;;11.48;6.65;;;8.60;99.90;;;;;;12386861;28;20059;-36
2022/05/01 05:28:18;;;;;;;12.75;7.13;;;8.50;99.90;;;;;;12392467;28;20065;-36
2022/05/01 05:34:30;;;;;;;12.60;7.80;;;8.60;99.90;;;;;;12395056;28;20077;-37
2022/05/01 05:40:45;;;;;;;14.80;6.97;;;8.60;99.90;;;;;;12391258;28;20050;-37
2022/05/01 05:47:02;;;;;;;10.48;6.97;;;8.70;99.90;;;;;;12393327;28;20503;-36
2022/05/01 05:53:24;;;;;;;10.32;5.78;;;8.70;99.90;;;;;;12392514;28;20137;-36
2022/05/01 05:59:35;;;;;;;8.57;6.05;;;8.80;99.90;;;;;;12390873;28;20506;-36
2022/05/01 06:05:44;;;;;;;12.52;5.63;;;8.90;99.90;;;;;;12397207;28;20145;-35
2022/05/01 06:12:00;;;;;;;10.65;5.22;;;9.00;99.90;;;;;;12390151;28;20491;-37
2022/05/01 06:18:07;;;;;;;9.82;5.70;;;9.10;99.90;;;;;;12387566;28;20049;-37
2022/05/01 06:24:09;;;;;;;12.77;6.22;;;9.30;99.90;;;;;;12373530;28;20046;-36
2022/05/01 06:30:13;;;;;;;11.20;5.40;;;9.30;99.90;;;;;;12381500;28;20081;-37
2022/05/01 06:36:16;;;;;;;11.77;5.22;;;9.50;99.90;;;;;;12380316;28;20293;-37
2022/05/01 06:42:19;;;;;;;11.20;5.77;;;9.80;99.90;;;;;;12385657;28;20046;-36
2022/05/01 06:48:22;;;;;;;12.20;6.20;;;9.80;99.90;;;;;;12379403;28;20061;-36
2022/05/01 06:54:25;;;;;;;11.65;5.50;;;9.90;99.90;;;;;;12384253;28;20050;-36
2022/05/01 07:00:27;;;;;;;11.70;5.30;;;10.10;99.90;;;;;;12388465;28;20050;-38
2022/05/01 07:06:29;;;;;;;7.72;4.28;;;10.30;99.90;;;;;;12386710;28;20046;-37
2022/05/01 07:12:31;;;;;;;7.57;4.28;;;10.50;99.90;;;;;;12388349;28;20054;-36
2022/05/01 07:18:33;;;;;;;9.13;3.90;;;10.80;99.90;;;;;;12388888;28;20046;-36
2022/05/01 07:24:35;;;;;;;9.32;3.88;;;11.00;99.90;;;;;;12387279;28;20621;-36
2022/05/01 07:30:37;;;;;;;9.57;4.32;;;10.70;99.90;;;;;;12384890;28;20050;-37
2022/05/01 07:36:39;;;;;;;7.05;3.92;;;10.80;99.90;;;;;;12386330;28;20191;-38
2022/05/01 07:42:41;;;;;;;8.65;4.25;;;10.80;99.90;;;;;;12394327;28;20487;-37
2022/05/01 07:48:43;;;;;;;6.80;3.90;;;10.80;99.90;;;;;;12397829;28;20140;-38
2022/05/01 07:54:53;;;;;;;8.52;4.20;;;10.80;99.90;;;;;;12396650;28;20046;-36
2022/05/01 08:01:18;;;;;;;10.85;4.68;;;10.90;99.90;;;;;;12401150;28;20418;-37
2022/05/01 08:07:34;;;;;;;8.55;3.85;;;11.00;99.90;;;;;;12400986;28;20051;-37
2022/05/01 08:14:01;;;;;;;6.18;3.08;;;11.10;99.90;;;;;;12404624;28;20065;-37
2022/05/01 08:27:05;;;;;;;8.30;3.95;;;11.60;99.90;;;;;;12400723;28;20537;-36
2022/05/01 08:33:25;;;;;;;7.50;3.40;;;11.70;99.90;;;;;;12399527;28;20137;-36
2022/05/01 08:39:48;;;;;;;7.82;3.00;;;11.80;99.90;;;;;;12398993;28;20121;-36
2022/05/01 08:46:23;;;;;;;6.80;3.70;;;11.80;99.90;;;;;;12402552;28;20058;-38
2022/05/01 08:52:44;;;;;;;8.38;3.85;;;11.80;99.90;;;;;;12398377;28;20057;-37
2022/05/01 08:59:21;;;;;;;6.38;2.63;;;11.80;99.90;;;;;;12396956;28;20058;-37
2022/05/01 09:05:30;;;;;;;5.55;3.45;;;11.90;99.90;;;;;;12393403;28;20050;-37
2022/05/01 09:18:06;;;;;;;5.90;2.88;;;12.40;99.90;;;;;;12394753;28;20054;-38
2022/05/01 09:24:27;;;;;;;8.82;3.47;;;12.60;99.90;;;;;;12386247;28;20097;-37
2022/05/01 09:30:42;;;;;;;6.07;3.28;;;12.60;99.90;;;;;;12397427;28;20415;-37
2022/05/01 09:36:57;;;;;;;5.13;3.40;;;13.10;99.90;;;;;;12392728;28;20058;-38
2022/05/01 09:43:30;;;;;;;5.90;3.28;;;13.30;99.90;;;;;;12395598;28;20513;-36
2022/05/01 09:49:57;;;;;;;5.65;3.00;;;13.20;99.90;;;;;;12393198;28;20062;-38
2022/05/01 09:56:12;;;;;;;7.28;3.17;;;13.40;99.90;;;;;;12390900;28;20092;-37
2022/05/01 10:02:34;;;;;;;7.00;2.50;;;13.90;99.90;;;;;;12395385;28;20650;-37
2022/05/01 10:08:51;;;;;;;5.18;2.70;;;14.00;99.90;;;;;;12387266;28;20521;-38
2022/05/01 10:15:10;;;;;;;5.45;2.72;;;14.40;99.90;;;;;;12387363;28;20090;-36
2022/05/01 10:21:31;;;;;;;6.65;2.63;;;14.20;99.90;;;;;;12391571;28;20097;-37
2022/05/01 10:27:56;;;;;;;5.72;2.40;;;14.00;99.90;;;;;;12385786;28;20116;-36
2022/05/01 10:34:40;;;;;;;4.35;2.40;;;14.10;99.90;;;;;;12376804;28;20044;-38
2022/05/01 10:41:04;;;;;;;;;;;14.80;99.90;;;;;;12386625;28;20066;-38
2022/05/01 10:47:44;;;;;;;3.38;2.20;;;15.30;99.90;;;;;;12392307;28;19944;-37
2022/05/01 10:54:13;;;;;;;4.03;2.22;;;15.50;99.90;;;;;;12379860;28;20521;-38
2022/05/01 11:00:30;;;;;;;6.75;2.33;;;15.10;99.90;;;;;;12383793;28;20049;-40
2022/05/01 11:06:47;;;;;;;5.93;2.58;;;15.10;99.90;;;;;;12402277;28;20050;-38
2022/05/01 11:12:56;;;;;;;4.32;2.33;;;15.00;99.90;;;;;;12406282;28;20112;-36
2022/05/01 11:19:08;;;;;;;5.50;2.70;;;15.40;99.90;;;;;;12402903;28;20584;-38
2022/05/01 11:25:44;;;;;;;6.55;2.75;;;15.20;99.90;;;;;;12399285;28;20562;-38
2022/05/01 11:32:16;;;;;;;3.95;2.47;;;15.10;99.90;;;;;;12405535;28;20434;-36
2022/05/01 11:38:22;;;;;;;4.63;2.47;;;14.90;99.90;;;;;;12406235;28;20418;-36
2022/05/01 11:44:31;;;;;;;3.42;1.88;;;14.50;99.90;;;;;;12399758;28;20537;-38
2022/05/01 11:50:40;;;;;;;6.05;2.90;;;14.30;99.90;;;;;;12396857;28;20050;-38
2022/05/01 12:03:29;;;;;;;8.23;2.90;;;14.20;99.90;;;;;;12396575;28;20057;-36
2022/05/01 12:09:41;;;;;;;7.90;2.75;;;14.30;99.90;;;;;;12399236;28;20150;-37
2022/05/01 12:15:45;;;;;;;5.95;3.30;;;14.20;99.90;;;;;;12393945;28;20495;-36
2022/05/01 12:21:48;;;;;;;7.53;2.90;;;14.20;99.90;;;;;;12395077;28;20133;-38
2022/05/01 12:27:51;;;;;;;6.30;3.23;;;14.30;99.90;;;;;;12395052;28;20080;-36
2022/05/01 12:33:57;;;;;;;4.60;2.83;;;14.50;99.90;;;;;;12392047;28;20059;-39
2022/05/01 12:40:12;;;;;;;5.00;3.10;;;14.70;99.90;;;;;;12385160;28;20133;-38
2022/05/01 12:46:28;;;;;;;8.20;2.80;;;14.60;99.90;;;;;;12380627;28;20057;-38
2022/05/01 12:52:35;;;;;;;4.80;3.30;;;15.30;99.90;;;;;;12376117;28;20552;-38
2022/05/01 12:58:39;;;;;;;4.38;2.72;;;15.60;99.90;;;;;;12376622;28;20479;-36
2022/05/01 13:04:43;;;;;;;4.75;2.85;;;15.40;99.90;;;;;;12378827;28;20418;-40
2022/05/01 13:11:13;;;;;;;4.78;2.90;;;15.60;99.90;;;;;;12377760;28;20039;-38
2022/05/01 13:17:16;;;;;;;5.63;2.78;;;15.60;99.90;;;;;;12380643;28;20125;-38
2022/05/01 13:23:19;;;;;;;5.90;3.20;;;15.70;99.90;;;;;;12376184;28;20116;-37
2022/05/01 13:29:23;;;;;;;5.93;2.75;;;15.50;99.90;;;;;;12377160;28;20053;-36
2022/05/01 13:35:25;;;;;;;;;;;15.30;99.90;;;;;;12384898;28;20050;-38
2022/05/01 13:47:48;;;;;;;6.70;2.80;;;14.60;99.90;;;;;;12376977;28;20443;-38
2022/05/01 13:53:50;;;;;;;6.80;2.83;;;14.50;99.90;;;;;;12375823;28;20054;-36
2022/05/01 13:59:52;;;;;;;6.30;3.10;;;14.60;99.90;;;;;;12375970;28;20137;-38
2022/05/01 14:05:55;;;;;;;5.53;2.75;;;14.70;99.90;;;;;;12378446;28;20053;-38
2022/05/01 14:11:57;;;;;;;7.28;2.60;;;14.70;99.90;;;;;;12371721;28;20050;-38
2022/05/01 14:18:00;;;;;;;5.15;3.00;;;15.20;99.90;;;;;;12373426;28;20133;-36
2022/05/01 14:24:05;;;;;;;6.00;2.85;;;15.40;99.90;;;;;;12372308;28;20062;-39
2022/05/01 14:30:09;;;;;;;5.53;3.38;;;14.90;99.90;;;;;;12374175;28;20050;-38
2022/05/01 14:36:19;;;;;;;5.23;3.00;;;14.60;99.90;;;;;;12376097;28;20058;-38
2022/05/01 14:42:27;;;;;;;5.40;2.83;;;14.40;99.90;;;;;;12370579;28;20137;-38
2022/05/01 14:48:32;;;;;;;7.85;3.55;;;14.50;99.90;;;;;;12365323;28;20078;-36
2022/05/01 14:54:41;;;;;;;6.75;3.22;;;14.40;99.90;;;;;;12370085;28;20463;-36
2022/05/01 15:07:06;;;;;;;6.13;2.70;;;14.10;99.90;;;;;;12365486;28;20065;-39
2022/05/01 15:13:14;;;;;;;3.75;2.65;;;14.00;99.90;;;;;;12374471;28;20457;-38
2022/05/01 15:19:48;;;;;;;5.82;3.10;;;14.00;99.90;;;;;;12370580;28;20051;-36
2022/05/01 15:25:54;;;;;;;5.15;3.00;;;14.10;99.90;;;;;;12373797;28;20065;-36
2022/05/01 15:31:57;;;;;;;8.32;3.13;;;14.20;99.90;;;;;;12376952;28;20053;-37
2022/05/01 15:38:03;;;;;;;6.15;3.70;;;14.00;99.90;;;;;;12378083;28;20058;-36
2022/05/01 15:44:08;;;;;;;4.07;2.85;;;13.90;99.90;;;;;;12377040;28;20053;-37
2022/05/01 15:56:39;;;;;;;7.55;2.80;;;13.70;99.90;;;;;;12379272;28;20098;-36
2022/05/01 16:02:48;;;;;;;5.05;3.08;;;13.80;99.90;;;;;;12378908;28;20058;-37
2022/05/01 16:08:51;;;;;;;5.03;2.97;;;13.60;99.90;;;;;;12387351;28;20092;-38
2022/05/01 16:15:07;;;;;;;7.50;3.30;;;13.70;99.90;;;;;;12386735;28;20057;-36
2022/05/01 16:21:59;;;;;;;4.53;2.70;;;13.90;99.90;;;;;;12392310;28;20061;-38
2022/05/01 16:28:10;;;;;;;6.18;2.90;;;13.80;99.90;;;;;;12314547;28;20477;-38
2022/05/01 16:34:26;;;;;;;6.60;3.10;;;13.90;99.90;;;;;;12388480;28;20141;-37
2022/05/01 16:40:32;;;;;;;6.00;2.85;;;13.80;99.90;;;;;;12378963;28;20054;-37
2022/05/01 16:46:36;;;;;;;5.90;3.03;;;13.80;99.90;;;;;;12371668;28;20062;-37
2022/05/01 16:52:49;;;;;;;4.88;2.80;;;13.60;99.90;;;;;;12378896;28;20050;-37
2022/05/01 16:58:52;;;;;;;4.53;2.85;;;13.70;99.90;;;;;;12378337;28;20077;-36
2022/05/01 17:05:11;;;;;;;6.03;2.80;;;13.60;99.90;;;;;;12379309;28;20065;-37
2022/05/01 17:11:20;;;;;;;4.78;2.83;;;13.50;99.90;;;;;;12374399;28;20038;-38
2022/05/01 17:17:53;;;;;;;5.35;2.40;;;13.30;99.90;;;;;;12375156;28;20053;-36
2022/05/01 17:24:04;;;;;;;6.78;3.38;;;13.20;99.90;;;;;;12370352;28;20073;-36
2022/05/01 17:30:11;;;;;;;5.78;2.75;;;13.10;99.90;;;;;;12377436;28;20046;-38
2022/05/01 17:36:15;;;;;;;4.75;2.63;;;13.20;99.90;;;;;;12377270;28;20088;-36
2022/05/01 17:42:21;;;;;;;4.55;2.42;;;13.10;99.90;;;;;;12380851;28;20054;-36
2022/05/01 17:48:24;;;;;;;5.00;2.55;;;12.90;99.90;;;;;;12381047;28;20051;-38
2022/05/01 17:54:30;;;;;;;5.85;2.75;;;12.90;99.90;;;;;;12378712;28;20461;-36
2022/05/01 18:00:38;;;;;;;6.03;2.30;;;12.80;99.90;;;;;;12378416;28;20577;-36
2022/05/01 18:13:20;;;;;;;5.43;2.90;;;12.60;99.90;;;;;;12366822;28;20940;-36
2022/05/01 18:19:33;;;;;;;4.85;2.55;;;12.40;99.90;;;;;;12371106;28;20271;-38
2022/05/01 18:26:02;;;;;;;5.70;2.45;;;12.20;99.90;;;;;;12370811;28;20100;-38
2022/05/01 18:32:44;;;;;;;3.92;2.50;;;12.10;99.90;;;;;;12364719;28;20357;-37
2022/05/01 18:38:51;;;;;;;3.92;2.28;;;12.20;99.90;;;;;;12355167;28;20058;-36
2022/05/01 18:44:55;;;;;;;4.28;2.50;;;12.20;99.90;;;;;;12370977;28;20050;-38
2022/05/01 18:50:59;;;;;;;4.18;2.22;;;12.20;99.90;;;;;;12376839;28;20089;-38
2022/05/01 18:57:02;;;;;;;;;;;12.20;99.90;;;;;;12370968;28;20078;-38
2022/05/01 19:03:05;;;;;;;5.32;2.50;;;12.10;99.90;;;;;;12367172;28;19925;-36
2022/05/01 19:09:28;;;;;;;3.10;2.13;;;12.20;99.90;;;;;;12375246;28;20134;-38
2022/05/01 19:15:57;;;;;;;6.43;2.58;;;12.00;99.90;;;;;;12377128;28;20145;-36
2022/05/01 19:22:36;;;;;;;6.18;3.08;;;11.90;99.90;;;;;;12377944;28;20046;-38
2022/05/01 19:29:16;;;;;;;4.63;2.55;;;11.90;99.90;;;;;;12379518;28;20120;-37
2022/05/01 19:35:20;;;;;;;7.30;2.92;;;11.90;99.90;;;;;;12382918;28;20050;-36
2022/05/01 19:41:44;;;;;;;7.88;2.90;;;11.70;99.90;;;;;;12382655;28;20509;-38
2022/05/01 19:54:19;;;;;;;6.57;3.40;;;11.70;99.90;;;;;;12385347;28;20081;-38
2022/05/01 20:00:36;;;;;;;4.50;2.72;;;11.60;99.90;;;;;;12382986;28;20078;-38
2022/05/01 20:06:39;;;;;;;5.85;3.47;;;11.50;99.90;;;;;;12387546;28;20062;-36
2022/05/01 20:12:41;;;;;;;6.28;3.40;;;11.50;99.90;;;;;;12381763;28;20145;-37
2022/05/01 20:19:07;;;;;;;6.28;2.88;;;11.30;99.90;;;;;;12384989;28;20614;-38
2022/05/01 20:25:48;;;;;;;5.88;3.20;;;11.30;99.90;;;;;;12376922;28;20128;-38
2022/05/01 20:32:14;;;;;;;6.65;3.60;;;11.20;99.90;;;;;;12311024;28;20050;-37
2022/05/01 20:39:00;;;;;;;10.32;5.82;;;11.20;99.90;;;;;;12376271;28;20055;-36
2022/05/01 20:45:09;;;;;;;5.40;3.33;;;10.90;99.90;;;;;;12379670;28;20057;-36
2022/05/01 20:51:12;;;;;;;4.97;3.38;;;10.80;99.90;;;;;;12377739;28;20050;-38
2022/05/01 20:57:16;;;;;;;7.60;4.07;;;10.40;99.90;;;;;;12378863;28;20057;-38
2022/05/01 21:03:21;;;;;;;7.27;4.03;;;10.50;99.90;;;;;;12377586;28;20301;-38
2022/05/01 21:09:24;;;;;;;6.80;4.55;;;10.60;99.90;;;;;;12377285;28;20376;-36
2022/05/01 21:15:26;;;;;;;6.60;4.20;;;10.60;99.90;;;;;;12375130;28;20157;-38
2022/05/01 21:21:28;;;;;;;6.35;4.82;;;10.60;99.90;;;;;;12378249;28;20059;-36
2022/05/01 21:27:37;;;;;;;6.30;4.00;;;10.50;99.90;;;;;;12380619;28;20065;-37
2022/05/01 21:33:40;;;;;;;7.13;4.00;;;10.30;99.90;;;;;;12380186;28;20622;-39
2022/05/01 21:39:42;;;;;;;7.97;4.38;;;10.20;99.90;;;;;;12382352;28;20061;-36
2022/05/01 21:45:44;;;;;;;10.30;4.00;;;10.10;99.90;;;;;;12380966;28;20046;-36
2022/05/01 21:51:46;;;;;;;6.07;4.05;;;10.10;99.90;;;;;;12376065;28;20096;-36
2022/05/01 21:57:48;;;;;;;6.00;3.50;;;10.10;99.90;;;;;;12377173;28;20057;-36
2022/05/01 22:03:50;;;;;;;6.93;4.40;;;10.10;99.90;;;;;;12375038;28;20388;-36
2022/05/01 22:09:53;;;;;;;9.00;4.25;;;10.30;99.90;;;;;;12377251;28;20046;-37
2022/05/01 22:15:56;;;;;;;8.55;4.60;;;10.40;99.90;;;;;;12374627;28;20088;-38
2022/05/01 22:21:58;;;;;;;5.78;4.10;;;10.30;99.90;;;;;;12373509;28;20534;-39
2022/05/01 22:28:00;;;;;;;9.15;3.85;;;10.20;99.90;;;;;;12378435;28;20092;-36
2022/05/01 22:34:02;;;;;;;9.60;4.35;;;10.10;99.90;;;;;;12374093;28;20054;-36
2022/05/01 22:40:04;;;;;;;7.32;4.32;;;9.90;99.90;;;;;;12375123;28;20388;-36
2022/05/01 22:46:06;;;;;;;8.35;4.40;;;9.70;99.90;;;;;;12375321;28;20106;-38
2022/05/01 22:52:08;;;;;;;7.00;3.90;;;9.70;99.90;;;;;;12378017;28;20507;-38
2022/05/01 22:58:10;;;;;;;9.32;4.30;;;9.60;99.90;;;;;;12371197;28;20567;-37
2022/05/01 23:04:12;;;;;;;5.30;4.20;;;9.60;99.90;;;;;;12375275;28;20078;-37
2022/05/01 23:10:15;;;;;;;6.88;4.00;;;9.50;99.90;;;;;;12373997;28;20054;-36
2022/05/01 23:16:20;;;;;;;7.38;4.28;;;9.50;99.90;;;;;;12369756;28;20046;-37
2022/05/01 23:22:22;;;;;;;6.60;3.97;;;9.50;99.90;;;;;;12366237;28;20054;-36
2022/05/01 23:28:24;;;;;;;9.07;4.53;;;9.50;99.90;;;;;;12376266;28;20097;-37
2022/05/01 23:34:26;;;;;;;7.65;4.00;;;9.50;99.90;;;;;;12375247;28;20153;-38
2022/05/01 23:40:29;;;;;;;6.05;4.40;;;9.30;99.90;;;;;;12373768;28;20141;-37
2022/05/01 23:46:31;;;;;;;7.65;4.07;;;9.20;99.90;;;;;;12375760;28;20558;-37
2022/05/01 23:52:33;;;;;;;8.63;4.10;;;9.10;99.90;;;;;;12378653;28;20085;-37
2022/05/01 23:58:35;;;;;;;5.45;4.35;;;9.10;99.90;;;;;;12374725;28;20112;-37
